createdAt,value
2022-12-02T00:02:24.473Z,7.90
2022-12-02T00:04:57.611Z,7.90
2022-12-02T00:07:27.600Z,7.70
2022-12-02T00:09:54.677Z,7.80
2022-12-02T00:12:30.965Z,7.90
2022-12-02T00:15:02.103Z,7.90
2022-12-02T00:17:31.609Z,7.90
2022-12-02T00:20:01.006Z,7.90
2022-12-02T00:22:27.942Z,7.90
2022-12-02T00:24:54.831Z,7.90
2022-12-02T00:27:21.844Z,7.90
2022-12-02T00:29:51.333Z,7.90
2022-12-02T00:32:23.181Z,7.90
2022-12-02T00:34:50.382Z,7.90
2022-12-02T00:37:17.539Z,7.90
2022-12-02T00:39:44.530Z,7.90
2022-12-02T00:42:11.559Z,7.90
2022-12-02T00:44:59.267Z,7.90
2022-12-02T00:47:30.868Z,7.90
2022-12-02T00:49:57.803Z,7.90
2022-12-02T00:52:27.459Z,7.80
2022-12-02T00:54:56.597Z,7.90
2022-12-02T00:57:23.493Z,7.90
2022-12-02T00:59:52.624Z,7.90
2022-12-02T01:02:19.470Z,7.90
2022-12-02T01:04:48.970Z,7.90
2022-12-02T01:07:16.581Z,7.80
2022-12-02T01:09:43.543Z,7.80
2022-12-02T01:12:15.596Z,7.80
2022-12-02T01:14:42.553Z,7.90
2022-12-02T01:17:09.574Z,7.80
2022-12-02T01:19:41.435Z,7.80
2022-12-02T01:22:08.339Z,7.90
2022-12-02T01:24:37.306Z,7.80
2022-12-02T01:27:04.251Z,7.80
2022-12-02T01:29:31.110Z,7.80
2022-12-02T01:31:58.005Z,7.80
2022-12-02T01:34:27.196Z,7.80
2022-12-02T01:36:56.581Z,7.80
2022-12-02T01:39:25.677Z,7.80
2022-12-02T01:41:52.651Z,7.80
2022-12-02T01:44:22.589Z,7.80
2022-12-02T01:46:52.304Z,7.70
2022-12-02T01:49:19.889Z,7.70
2022-12-02T01:51:47.085Z,7.70
2022-12-02T01:54:14.123Z,7.80
2022-12-02T01:56:41.253Z,7.80
2022-12-02T01:59:12.869Z,7.80
2022-12-02T02:01:40.280Z,7.80
2022-12-02T02:04:10.621Z,7.60
2022-12-02T02:06:45.300Z,7.70
2022-12-02T02:09:12.705Z,7.80
2022-12-02T02:11:43.780Z,7.80
2022-12-02T02:14:14.355Z,7.80
2022-12-02T02:16:43.948Z,7.80
2022-12-02T02:19:14.504Z,7.80
2022-12-02T02:21:48.411Z,7.80
2022-12-02T02:24:15.354Z,7.80
2022-12-02T02:26:42.429Z,7.80
2022-12-02T02:29:09.454Z,7.80
2022-12-02T02:31:39.419Z,7.80
2022-12-02T02:34:06.401Z,7.80
2022-12-02T02:36:35.472Z,7.80
2022-12-02T02:39:04.786Z,7.90
2022-12-02T02:41:31.701Z,7.90
2022-12-02T02:43:58.649Z,7.80
2022-12-02T02:46:25.649Z,7.90
2022-12-02T02:48:52.648Z,7.90
2022-12-02T02:51:22.159Z,7.90
2022-12-02T02:53:51.838Z,7.90
2022-12-02T02:56:18.911Z,7.90
2022-12-02T02:58:45.868Z,7.90
2022-12-02T03:01:35.855Z,7.90
2022-12-02T03:04:12.493Z,7.90
2022-12-02T03:06:45.453Z,7.90
2022-12-02T03:09:15.319Z,7.90
2022-12-02T03:11:44.132Z,7.90
2022-12-02T03:14:15.890Z,7.90
2022-12-02T03:16:48.389Z,7.90
2022-12-02T03:19:15.743Z,7.90
2022-12-02T03:21:42.883Z,7.90
2022-12-02T03:24:12.425Z,7.90
2022-12-02T03:26:42.001Z,7.90
2022-12-02T03:29:13.008Z,7.90
2022-12-02T03:31:42.471Z,7.90
2022-12-02T03:34:13.105Z,7.90
2022-12-02T03:36:41.596Z,7.80
2022-12-02T03:39:11.320Z,7.80
2022-12-02T03:41:39.681Z,7.90
2022-12-02T03:44:09.490Z,7.90
2022-12-02T03:46:39.261Z,7.90
2022-12-02T03:49:06.188Z,7.90
2022-12-02T03:51:33.283Z,7.90
2022-12-02T03:54:01.885Z,7.90
2022-12-02T03:56:28.819Z,7.90
2022-12-02T03:58:58.231Z,7.90
2022-12-02T04:01:25.191Z,7.90
2022-12-02T04:03:52.231Z,7.90
2022-12-02T04:06:22.444Z,7.90
2022-12-02T04:08:49.570Z,7.90
2022-12-02T04:11:19.611Z,7.90
2022-12-02T04:13:46.493Z,7.90
2022-12-02T04:16:13.555Z,7.90
2022-12-02T04:18:42.611Z,7.90
2022-12-02T04:21:09.644Z,7.90
2022-12-02T04:23:36.543Z,7.90
2022-12-02T04:26:06.261Z,7.80
2022-12-02T04:28:37.736Z,7.90
2022-12-02T04:31:04.683Z,7.90
2022-12-02T04:33:31.541Z,7.80
2022-12-02T04:36:00.574Z,7.80
2022-12-02T04:38:27.455Z,7.80
2022-12-02T04:40:54.351Z,7.80
2022-12-02T04:43:21.211Z,7.80
2022-12-02T04:45:51.042Z,7.80
2022-12-02T04:48:17.921Z,7.80
2022-12-02T04:50:47.810Z,7.80
2022-12-02T04:53:17.251Z,7.80
2022-12-02T04:55:46.637Z,7.80
2022-12-02T04:58:14.129Z,7.90
2022-12-02T05:00:41.308Z,7.80
2022-12-02T05:03:08.659Z,7.90
2022-12-02T05:05:35.735Z,7.90
2022-12-02T05:08:07.358Z,7.80
2022-12-02T05:10:34.181Z,7.90
2022-12-02T05:13:01.078Z,7.70
2022-12-02T05:15:28.034Z,7.80
2022-12-02T05:17:54.946Z,7.80
2022-12-02T05:20:21.867Z,7.90
2022-12-02T05:22:48.737Z,7.90
2022-12-02T05:25:17.841Z,7.90
2022-12-02T05:27:44.720Z,7.90
2022-12-02T05:30:12.902Z,7.90
2022-12-02T05:32:42.097Z,7.90
2022-12-02T05:35:11.700Z,7.90
2022-12-02T05:37:43.629Z,7.90
2022-12-02T05:40:19.147Z,7.90
2022-12-02T05:42:48.221Z,7.90
2022-12-02T05:45:24.500Z,7.90
2022-12-02T05:47:56.913Z,7.90
2022-12-02T05:50:26.371Z,7.90
2022-12-02T05:52:53.262Z,7.90
2022-12-02T05:55:22.088Z,7.90
2022-12-02T05:57:52.814Z,7.90
2022-12-02T06:00:24.128Z,7.90
2022-12-02T06:02:55.096Z,7.90
2022-12-02T06:05:45.819Z,7.80
2022-12-02T06:08:36.266Z,7.80
2022-12-02T06:11:49.501Z,7.80
2022-12-02T06:14:34.378Z,7.80
2022-12-02T06:17:06.725Z,7.80
2022-12-02T06:19:54.211Z,7.80
2022-12-02T06:22:27.581Z,7.80
2022-12-02T06:25:00.236Z,7.80
2022-12-02T06:27:32.466Z,7.80
2022-12-02T06:30:03.191Z,7.80
2022-12-02T06:32:40.513Z,7.80
2022-12-02T06:35:28.311Z,7.80
2022-12-02T06:37:59.059Z,7.80
2022-12-02T06:40:36.849Z,7.80
2022-12-02T06:43:16.277Z,7.80
2022-12-02T06:45:48.666Z,7.80
2022-12-02T06:48:37.985Z,7.80
2022-12-02T06:51:20.092Z,7.80
2022-12-02T06:53:51.968Z,7.80
2022-12-02T06:56:28.604Z,7.80
2022-12-02T06:59:05.473Z,7.80
2022-12-02T07:01:45.318Z,7.90
2022-12-02T07:04:46.504Z,7.80
2022-12-02T07:07:23.244Z,7.80
2022-12-02T07:10:04.419Z,7.80
2022-12-02T07:12:37.689Z,7.80
2022-12-02T07:15:27.478Z,7.80
2022-12-02T07:18:02.378Z,7.80
2022-12-02T07:20:33.487Z,7.80
2022-12-02T07:23:21.957Z,7.80
2022-12-02T07:26:00.757Z,7.80
2022-12-02T07:28:41.327Z,7.80
2022-12-02T07:31:23.209Z,7.80
2022-12-02T07:33:53.100Z,7.80
2022-12-02T07:36:25.282Z,7.80
2022-12-02T07:39:09.692Z,7.90
2022-12-02T07:41:37.582Z,7.90
2022-12-02T07:44:06.020Z,7.90
2022-12-02T07:46:35.654Z,7.90
2022-12-02T07:49:02.593Z,7.90
2022-12-02T07:51:34.947Z,7.90
2022-12-02T07:54:04.363Z,7.90
2022-12-02T07:56:31.311Z,7.90
2022-12-02T07:59:14.414Z,7.90
2022-12-02T08:01:45.434Z,7.90
2022-12-02T08:04:12.685Z,7.90
2022-12-02T08:06:40.480Z,7.90
2022-12-02T08:09:09.078Z,7.90
2022-12-02T08:11:38.440Z,8.00
2022-12-02T08:14:07.965Z,8.00
2022-12-02T08:16:35.361Z,8.00
2022-12-02T08:19:04.942Z,8.00
2022-12-02T08:21:32.571Z,8.00
2022-12-02T08:24:00.172Z,8.00
2022-12-02T08:26:29.976Z,8.00
2022-12-02T08:29:00.020Z,8.00
2022-12-02T08:31:28.058Z,8.00
2022-12-02T08:33:55.137Z,8.10
2022-12-02T08:36:24.923Z,8.00
2022-12-02T08:38:51.973Z,8.10
2022-12-02T08:41:21.667Z,8.10
2022-12-02T08:43:48.839Z,8.10
2022-12-02T08:46:20.481Z,8.10
2022-12-02T08:48:47.297Z,8.10
2022-12-02T08:51:14.178Z,7.90
2022-12-02T08:53:41.081Z,8.00
2022-12-02T08:56:10.332Z,8.10
2022-12-02T08:58:37.345Z,8.10
2022-12-02T09:01:07.024Z,8.10
2022-12-02T09:03:36.523Z,8.10
2022-12-02T09:06:05.781Z,8.10
2022-12-02T09:08:34.965Z,8.10
2022-12-02T09:11:06.127Z,8.10
2022-12-02T09:13:37.569Z,8.10
2022-12-02T09:16:04.987Z,8.10
2022-12-02T09:18:32.118Z,8.10
2022-12-02T09:20:59.079Z,8.20
2022-12-02T09:23:30.491Z,8.20
2022-12-02T09:25:59.970Z,8.20
2022-12-02T09:28:26.771Z,8.20
2022-12-02T09:30:55.803Z,8.20
2022-12-02T09:33:22.776Z,8.20
2022-12-02T09:35:51.261Z,8.20
2022-12-02T09:38:18.199Z,8.20
2022-12-02T09:40:45.147Z,8.20
2022-12-02T09:43:12.295Z,8.30
2022-12-02T09:45:39.249Z,8.30
2022-12-02T09:48:07.410Z,8.30
2022-12-02T09:50:34.513Z,8.30
2022-12-02T09:53:07.860Z,8.30
2022-12-02T09:55:39.188Z,8.40
2022-12-02T09:58:12.529Z,8.30
2022-12-02T10:00:39.433Z,8.40
2022-12-02T10:03:10.464Z,8.40
2022-12-02T10:05:41.131Z,8.40
2022-12-02T10:08:17.906Z,8.40
2022-12-02T10:10:48.163Z,8.40
2022-12-02T10:13:19.015Z,8.50
2022-12-02T10:15:46.701Z,8.50
2022-12-02T10:18:21.908Z,8.50
2022-12-02T10:20:50.448Z,8.50
2022-12-02T10:23:29.109Z,8.50
2022-12-02T10:26:15.048Z,8.50
2022-12-02T10:28:43.045Z,8.50
2022-12-02T10:31:12.699Z,8.50
2022-12-02T10:33:51.378Z,8.50
2022-12-02T10:36:54.615Z,8.50
2022-12-02T10:39:24.303Z,8.40
2022-12-02T10:42:13.903Z,8.50
2022-12-02T10:44:48.599Z,8.40
2022-12-02T10:47:25.750Z,8.50
2022-12-02T10:49:58.965Z,8.50
2022-12-02T10:52:45.728Z,8.50
2022-12-02T10:55:13.189Z,8.50
2022-12-02T10:57:42.884Z,8.50
2022-12-02T11:00:29.243Z,8.60
2022-12-02T11:03:04.197Z,8.60
2022-12-02T11:05:35.830Z,8.60
2022-12-02T11:08:23.969Z,8.60
2022-12-02T11:11:24.718Z,8.40
2022-12-02T11:14:12.800Z,8.50
2022-12-02T11:16:53.897Z,8.60
2022-12-02T11:19:33.580Z,8.50
2022-12-02T11:22:03.503Z,8.50
2022-12-02T11:24:32.849Z,8.60
2022-12-02T11:26:59.729Z,8.60
2022-12-02T11:29:29.654Z,8.60
2022-12-02T11:32:21.656Z,8.60
2022-12-02T11:35:16.979Z,8.60
2022-12-02T11:37:47.534Z,8.60
2022-12-02T11:40:17.896Z,8.70
2022-12-02T11:42:46.286Z,8.70
2022-12-02T11:45:16.387Z,8.70
2022-12-02T11:48:00.441Z,8.70
2022-12-02T11:50:40.714Z,8.70
2022-12-02T11:53:21.931Z,8.70
2022-12-02T11:55:54.862Z,8.70
2022-12-02T11:58:32.357Z,8.70
2022-12-02T12:01:20.966Z,8.80
2022-12-02T12:03:54.532Z,8.70
2022-12-02T12:06:34.668Z,8.80
2022-12-02T12:09:13.318Z,8.80
2022-12-02T12:11:42.067Z,8.70
2022-12-02T12:14:12.045Z,8.80
2022-12-02T12:16:47.215Z,8.80
2022-12-02T12:19:15.182Z,8.80
2022-12-02T12:21:49.706Z,8.80
2022-12-02T12:24:23.535Z,8.80
2022-12-02T12:27:35.464Z,8.80
2022-12-02T12:30:02.796Z,8.80
2022-12-02T12:32:32.536Z,8.80
2022-12-02T12:34:59.427Z,8.80
2022-12-02T12:37:26.447Z,8.80
2022-12-02T12:39:57.938Z,8.80
2022-12-02T12:42:27.277Z,8.80
2022-12-02T12:44:54.388Z,8.80
2022-12-02T12:47:24.001Z,8.80
2022-12-02T12:49:53.565Z,8.80
2022-12-02T12:52:23.154Z,8.80
2022-12-02T12:54:53.088Z,8.80
2022-12-02T12:57:20.732Z,8.80
2022-12-02T12:59:47.804Z,8.80
2022-12-02T13:02:14.969Z,8.80
2022-12-02T13:04:42.038Z,8.80
2022-12-02T13:07:11.498Z,8.80
2022-12-02T13:09:38.724Z,8.80
2022-12-02T13:12:12.663Z,8.80
2022-12-02T13:14:41.313Z,8.70
2022-12-02T13:17:13.351Z,8.70
2022-12-02T13:19:40.438Z,8.70
2022-12-02T13:22:07.382Z,8.70
2022-12-02T13:24:42.679Z,8.70
2022-12-02T13:27:12.461Z,8.70
2022-12-02T13:29:39.599Z,8.70
2022-12-02T13:32:09.799Z,8.70
2022-12-02T13:34:36.947Z,8.70
2022-12-02T13:37:03.935Z,8.70
2022-12-02T13:39:30.952Z,8.60
2022-12-02T13:42:00.435Z,8.60
2022-12-02T13:44:27.491Z,8.70
2022-12-02T13:46:54.477Z,8.60
2022-12-02T13:49:21.662Z,8.60
2022-12-02T13:51:51.056Z,8.60
2022-12-02T13:54:23.015Z,8.60
2022-12-02T13:56:49.943Z,8.60
2022-12-02T13:59:16.952Z,8.60
2022-12-02T14:01:46.500Z,8.60
2022-12-02T14:04:13.585Z,8.60
2022-12-02T14:06:43.238Z,8.60
2022-12-02T14:09:10.158Z,8.60
2022-12-02T14:11:40.515Z,8.60
2022-12-02T14:14:09.764Z,8.60
2022-12-02T14:16:38.737Z,8.60
2022-12-02T14:19:11.389Z,8.60
2022-12-02T14:21:42.982Z,8.60
2022-12-02T14:24:09.933Z,8.60
2022-12-02T14:26:39.298Z,8.40
2022-12-02T14:29:09.257Z,8.50
2022-12-02T14:31:40.830Z,8.50
2022-12-02T14:34:12.898Z,8.50
2022-12-02T14:36:45.865Z,8.40
2022-12-02T14:39:12.774Z,8.50
2022-12-02T14:41:40.026Z,8.50
2022-12-02T14:44:10.115Z,8.50
2022-12-02T14:46:37.317Z,8.50
2022-12-02T14:49:39.137Z,8.50
2022-12-02T14:51:56.072Z,8.50
2022-12-02T14:54:25.486Z,8.50
2022-12-02T14:56:55.424Z,8.50
2022-12-02T14:59:22.364Z,8.50
2022-12-02T15:01:49.646Z,8.50
2022-12-02T15:04:18.728Z,8.50
2022-12-02T15:06:45.875Z,8.50
2022-12-02T15:09:13.208Z,8.50
2022-12-02T15:11:42.804Z,8.50
2022-12-02T15:14:09.865Z,8.50
2022-12-02T15:16:36.863Z,8.50
2022-12-02T15:19:06.545Z,8.50
2022-12-02T15:21:33.542Z,8.50
2022-12-02T15:24:00.633Z,8.50
2022-12-02T15:26:27.739Z,8.50
2022-12-02T15:28:54.849Z,8.50
2022-12-02T15:31:27.388Z,8.50
2022-12-02T15:33:54.604Z,8.50
2022-12-02T15:36:21.657Z,8.50
2022-12-02T15:38:48.634Z,8.50
2022-12-02T15:41:19.145Z,8.50
2022-12-02T15:43:50.173Z,8.50
2022-12-02T15:46:20.416Z,8.50
2022-12-02T15:48:47.691Z,8.50
2022-12-02T15:51:14.608Z,8.50
2022-12-02T15:53:47.025Z,8.50
2022-12-02T15:56:15.075Z,8.50
2022-12-02T15:58:42.104Z,8.50
2022-12-02T16:01:16.680Z,8.50
2022-12-02T16:03:43.866Z,8.50
2022-12-02T16:06:10.929Z,8.50
2022-12-02T16:08:40.163Z,8.50
2022-12-02T16:11:09.660Z,8.50
2022-12-02T16:13:39.029Z,8.50
2022-12-02T16:16:06.282Z,8.50
2022-12-02T16:18:35.911Z,8.50
2022-12-02T16:21:13.651Z,8.50
2022-12-02T16:23:40.497Z,8.50
2022-12-02T16:26:09.567Z,8.50
2022-12-02T16:28:38.134Z,8.50
2022-12-02T16:31:05.232Z,8.50
2022-12-02T16:33:32.372Z,8.50
2022-12-02T16:36:07.216Z,8.50
2022-12-02T16:38:37.008Z,8.50
2022-12-02T16:41:09.171Z,8.50
2022-12-02T16:43:38.581Z,8.50
2022-12-02T16:46:09.271Z,8.50
2022-12-02T16:48:39.016Z,8.50
2022-12-02T16:51:06.058Z,8.50
2022-12-02T16:53:35.233Z,8.50
2022-12-02T16:56:02.311Z,8.50
2022-12-02T16:58:31.916Z,8.50
2022-12-02T17:00:59.049Z,8.40
2022-12-02T17:03:35.596Z,8.50
2022-12-02T17:06:02.527Z,8.40
2022-12-02T17:08:35.159Z,8.40
2022-12-02T17:11:08.834Z,8.40
2022-12-02T17:13:35.839Z,8.40
2022-12-02T17:16:03.048Z,8.40
2022-12-02T17:18:30.196Z,8.40
2022-12-02T17:20:57.131Z,8.40
2022-12-02T17:23:26.302Z,8.30
2022-12-02T17:25:56.066Z,8.30
2022-12-02T17:28:26.038Z,8.30
2022-12-02T17:30:53.339Z,8.30
2022-12-02T17:33:23.349Z,8.30
2022-12-02T17:35:50.363Z,8.30
2022-12-02T17:38:17.430Z,8.30
2022-12-02T17:40:44.455Z,8.30
2022-12-02T17:43:11.326Z,8.30
2022-12-02T17:45:40.020Z,8.20
2022-12-02T17:48:06.978Z,8.20
2022-12-02T17:50:36.098Z,8.20
2022-12-02T17:53:02.966Z,8.10
2022-12-02T17:55:31.971Z,8.10
2022-12-02T17:57:59.103Z,8.10
2022-12-02T18:00:29.204Z,8.10
2022-12-02T18:02:56.135Z,8.10
2022-12-02T18:05:25.390Z,8.10
2022-12-02T18:07:54.488Z,8.10
2022-12-02T18:10:21.629Z,8.10
2022-12-02T18:12:51.026Z,8.00
2022-12-02T18:15:17.983Z,8.00
2022-12-02T18:17:44.846Z,8.00
2022-12-02T18:20:16.998Z,8.00
2022-12-02T18:22:43.840Z,7.90
2022-12-02T18:25:10.743Z,7.90
2022-12-02T18:27:37.738Z,7.90
2022-12-02T18:30:05.748Z,7.90
2022-12-02T18:32:32.769Z,7.90
2022-12-02T18:34:59.691Z,7.90
2022-12-02T18:37:26.811Z,7.80
2022-12-02T18:39:53.679Z,7.90
2022-12-02T18:42:20.926Z,7.90
2022-12-02T18:44:50.235Z,7.80
2022-12-02T18:47:17.632Z,7.80
2022-12-02T18:49:44.520Z,7.80
2022-12-02T18:52:11.487Z,7.80
2022-12-02T18:54:41.037Z,7.80
2022-12-02T18:57:08.016Z,7.70
2022-12-02T18:59:34.981Z,7.70
2022-12-02T19:02:01.983Z,7.70
2022-12-02T19:04:31.408Z,7.70
2022-12-02T19:06:58.404Z,7.70
2022-12-02T19:09:27.431Z,7.70
2022-12-02T19:11:54.381Z,7.60
2022-12-02T19:14:21.336Z,7.60
2022-12-02T19:16:48.194Z,7.60
2022-12-02T19:19:15.152Z,7.60
2022-12-02T19:21:42.136Z,7.60
2022-12-02T19:24:09.135Z,7.60
2022-12-02T19:26:38.266Z,7.50
2022-12-02T19:29:08.148Z,7.50
2022-12-02T19:31:37.357Z,7.50
2022-12-02T19:34:13.197Z,7.50
2022-12-02T19:36:40.130Z,7.50
2022-12-02T19:39:09.750Z,7.50
2022-12-02T19:41:36.703Z,7.40
2022-12-02T19:44:04.272Z,7.40
2022-12-02T19:46:33.904Z,7.40
2022-12-02T19:49:03.916Z,7.40
2022-12-02T19:51:30.914Z,7.40
2022-12-02T19:54:00.200Z,7.40
2022-12-02T19:56:27.255Z,7.30
2022-12-02T19:58:54.515Z,7.30
2022-12-02T20:01:23.709Z,7.30
2022-12-02T20:03:50.899Z,7.30
2022-12-02T20:06:17.996Z,7.30
2022-12-02T20:08:44.918Z,7.30
2022-12-02T20:11:13.956Z,7.20
2022-12-02T20:13:40.886Z,7.20
2022-12-02T20:16:08.118Z,7.20
2022-12-02T20:18:38.058Z,7.10
2022-12-02T20:21:14.685Z,7.10
2022-12-02T20:23:41.977Z,7.10
2022-12-02T20:26:09.733Z,7.00
2022-12-02T20:28:41.815Z,7.10
2022-12-02T20:31:11.317Z,7.00
2022-12-02T20:33:38.336Z,7.00
2022-12-02T20:36:05.624Z,7.00
2022-12-02T20:38:32.515Z,7.00
2022-12-02T20:40:59.443Z,7.00
2022-12-02T20:43:26.565Z,7.00
2022-12-02T20:45:53.458Z,7.00
2022-12-02T20:48:20.334Z,7.00
2022-12-02T20:50:47.388Z,7.00
2022-12-02T20:53:16.933Z,7.00
2022-12-02T20:55:44.107Z,7.10
2022-12-02T20:58:13.050Z,7.10
2022-12-02T21:00:42.545Z,7.10
2022-12-02T21:03:11.835Z,7.10
2022-12-02T21:05:38.751Z,7.10
2022-12-02T21:08:05.930Z,7.10
2022-12-02T21:10:33.017Z,7.10
2022-12-02T21:13:00.663Z,7.10
2022-12-02T21:15:27.740Z,7.10
2022-12-02T21:17:54.684Z,7.10
2022-12-02T21:20:24.490Z,7.10
2022-12-02T21:22:51.427Z,7.10
2022-12-02T21:25:21.256Z,7.10
2022-12-02T21:27:48.160Z,7.10
2022-12-02T21:30:15.777Z,7.10
2022-12-02T21:32:42.733Z,7.10
2022-12-02T21:35:12.196Z,7.10
2022-12-02T21:37:39.348Z,7.10
2022-12-02T21:40:09.598Z,7.10
2022-12-02T21:42:36.452Z,7.10
2022-12-02T21:45:03.934Z,7.10
2022-12-02T21:47:31.113Z,7.10
2022-12-02T21:50:00.536Z,7.10
2022-12-02T21:52:28.527Z,7.10
2022-12-02T21:54:55.521Z,7.00
2022-12-02T21:57:22.596Z,7.00
2022-12-02T21:59:51.545Z,7.10
2022-12-02T22:02:20.591Z,7.10
2022-12-02T22:04:47.595Z,7.00
2022-12-02T22:07:32.973Z,7.10
2022-12-02T22:10:00.079Z,7.00
2022-12-02T22:12:26.959Z,7.00
2022-12-02T22:14:56.454Z,7.00
2022-12-02T22:17:25.575Z,7.00
2022-12-02T22:19:54.601Z,7.10
2022-12-02T22:22:21.533Z,7.00
2022-12-02T22:24:48.577Z,7.00
2022-12-02T22:27:15.454Z,7.00
2022-12-02T22:29:42.469Z,7.00
2022-12-02T22:32:09.559Z,7.00
2022-12-02T22:34:36.423Z,7.00
2022-12-02T22:37:06.287Z,7.10
2022-12-02T22:39:33.226Z,7.10
2022-12-02T22:42:00.319Z,7.10
2022-12-02T22:44:29.334Z,7.10
2022-12-02T22:46:59.213Z,7.10
2022-12-02T22:49:26.131Z,7.10
2022-12-02T22:51:53.039Z,7.20
2022-12-02T22:54:22.138Z,7.10
2022-12-02T22:56:51.492Z,7.20
2022-12-02T22:59:18.394Z,7.10
2022-12-02T23:01:45.354Z,7.20
2022-12-02T23:04:12.281Z,7.20
2022-12-02T23:06:39.122Z,7.20
2022-12-02T23:09:05.988Z,7.20
2022-12-02T23:11:32.818Z,7.20
2022-12-02T23:14:02.266Z,7.20
2022-12-02T23:16:29.213Z,7.20
2022-12-02T23:18:58.385Z,7.20
2022-12-02T23:21:25.301Z,7.20
2022-12-02T23:23:52.202Z,7.20
2022-12-02T23:26:19.132Z,7.20
2022-12-02T23:28:48.558Z,7.20
2022-12-02T23:31:15.551Z,7.30
2022-12-02T23:33:48.622Z,7.30
2022-12-02T23:36:17.710Z,7.30
2022-12-02T23:38:46.831Z,7.30
2022-12-02T23:41:13.798Z,7.30
2022-12-02T23:43:40.644Z,7.30
2022-12-02T23:46:07.562Z,7.30
2022-12-02T23:48:34.467Z,7.30
2022-12-02T23:51:04.040Z,7.30
2022-12-02T23:53:30.877Z,7.30
2022-12-02T23:55:57.708Z,7.30
2022-12-02T23:58:24.637Z,7.30
